Time;durP1;ratioP1;P1;durP2;ratioP2;P2;SDS_P1;SDS_P2;PMS_P1;PMS_P2;Temp;Humidity;BMP_temperature;BMP_pressure;BME280_temperature;BME280_humidity;BME280_pressure;Samples;Min_cycle;Max_cycle;Signal;HPM_P1;HPM_P2
2023/04/12 00:00:05;;;;;;;6.00;3.20;;;8.80;68.50;;;;;;5029674;28;20477;-65
2023/04/12 00:02:34;;;;;;;3.60;3.30;;;8.80;68.90;;;;;;5029157;28;20457;-65
2023/04/12 00:05:01;;;;;;;7.07;3.47;;;8.80;66.90;;;;;;5029702;28;20541;-65
2023/04/12 00:07:29;;;;;;;4.90;3.07;;;9.00;68.60;;;;;;5029416;28;20445;-65
2023/04/12 00:09:55;;;;;;;11.40;3.23;;;8.90;70.50;;;;;;5028452;28;20469;-65
2023/04/12 00:12:24;;;;;;;7.87;3.30;;;8.90;68.80;;;;;;5042583;28;20835;-66
2023/04/12 00:14:50;;;;;;;3.97;3.57;;;8.80;68.20;;;;;;5039543;28;20962;-66
2023/04/12 00:17:18;;;;;;;5.10;3.50;;;8.90;70.30;;;;;;5030045;28;20458;-66
2023/04/12 00:19:46;;;;;;;4.40;3.30;;;8.80;69.90;;;;;;5029503;28;20456;-66
2023/04/12 00:22:13;;;;;;;5.33;3.60;;;8.70;72.30;;;;;;5033202;28;20510;-66
2023/04/12 00:24:40;;;;;;;8.90;4.10;;;8.70;71.90;;;;;;5049166;28;20924;-66
2023/04/12 00:27:07;;;;;;;4.40;2.97;;;8.70;70.80;;;;;;5030732;28;20454;-66
2023/04/12 00:29:35;;;;;;;5.47;3.30;;;8.70;71.80;;;;;;5030956;28;20447;-66
2023/04/12 00:32:04;;;;;;;7.47;3.43;;;8.60;70.90;;;;;;5031372;28;20449;-66
2023/04/12 00:34:31;;;;;;;6.50;3.20;;;8.60;70.10;;;;;;5030561;28;20978;-66
2023/04/12 00:36:58;;;;;;;5.10;3.37;;;8.60;73.30;;;;;;5031102;28;20842;-66
2023/04/12 00:39:25;;;;;;;7.03;3.80;;;8.60;72.60;;;;;;5030669;28;20868;-66
2023/04/12 00:41:51;;;;;;;7.43;3.50;;;8.60;74.20;;;;;;5031029;28;20478;-66
2023/04/12 00:44:18;;;;;;;9.13;3.80;;;8.50;75.50;;;;;;5030394;28;20998;-66
2023/04/12 00:46:46;;;;;;;6.30;4.10;;;8.40;75.00;;;;;;5030939;28;20528;-66
2023/04/12 00:49:14;;;;;;;7.27;3.87;;;8.50;78.60;;;;;;5030925;28;20479;-66
2023/04/12 00:51:41;;;;;;;7.50;3.00;;;8.50;77.20;;;;;;5030332;28;20465;-66
2023/04/12 00:54:08;;;;;;;5.63;2.87;;;8.50;80.30;;;;;;5031076;28;20445;-66
2023/04/12 00:56:35;;;;;;;7.13;3.60;;;8.40;80.00;;;;;;5031123;28;20959;-66
2023/04/12 00:59:02;;;;;;;5.40;2.50;;;8.40;80.90;;;;;;5030945;28;20448;-65
2023/04/12 01:01:30;;;;;;;3.97;2.33;;;8.30;83.70;;;;;;5031187;28;20468;-66
2023/04/12 01:04:00;;;;;;;4.70;2.60;;;8.30;83.80;;;;;;5030309;28;20543;-66
2023/04/12 01:06:36;;;;;;;5.43;2.53;;;8.20;86.10;;;;;;5030263;28;21023;-66
2023/04/12 01:09:15;;;;;;;5.03;2.40;;;8.10;89.90;;;;;;5030810;28;20967;-66
2023/04/12 01:11:47;;;;;;;4.90;2.97;;;8.00;89.20;;;;;;5030482;28;21000;-67
2023/04/12 01:14:25;;;;;;;4.20;2.40;;;8.00;89.80;;;;;;5029957;28;20443;-67
2023/04/12 01:16:57;;;;;;;6.17;2.80;;;7.90;90.70;;;;;;5037074;28;20454;-67
2023/04/12 01:19:44;;;;;;;6.17;3.50;;;7.90;91.40;;;;;;5050248;28;20487;-66
2023/04/12 01:22:17;;;;;;;4.30;2.33;;;7.90;91.50;;;;;;5050081;28;20898;-66
2023/04/12 01:24:54;;;;;;;3.90;2.57;;;7.80;92.30;;;;;;5049834;28;21110;-66
2023/04/12 01:27:39;;;;;;;8.67;3.60;;;7.80;92.40;;;;;;5049500;28;20813;-66
2023/04/12 01:30:10;;;;;;;5.23;2.77;;;7.80;93.30;;;;;;5049719;28;20468;-67
2023/04/12 01:32:39;;;;;;;5.90;2.77;;;7.80;93.50;;;;;;5049707;28;20530;-67
2023/04/12 01:35:07;;;;;;;9.00;3.00;;;7.80;93.40;;;;;;5049844;28;20500;-66
2023/04/12 01:37:35;;;;;;;3.97;2.83;;;7.70;93.80;;;;;;5049445;28;20950;-66
2023/04/12 01:40:04;;;;;;;4.43;2.80;;;7.70;94.20;;;;;;5049750;28;20468;-68
2023/04/12 01:42:32;;;;;;;7.33;3.10;;;7.70;94.20;;;;;;5037222;28;20517;-66
2023/04/12 01:44:59;;;;;;;7.43;3.20;;;7.70;94.20;;;;;;5029483;28;20474;-67
2023/04/12 01:47:26;;;;;;;8.07;3.50;;;7.70;94.40;;;;;;5029848;28;20460;-67
2023/04/12 01:50:01;;;;;;;6.00;2.77;;;7.70;94.50;;;;;;5029848;28;20823;-67
2023/04/12 01:52:32;;;;;;;4.37;2.50;;;7.70;95.40;;;;;;5029508;28;20942;-67
2023/04/12 01:55:02;;;;;;;7.53;3.47;;;7.80;95.70;;;;;;5030256;28;20842;-68
2023/04/12 01:57:29;;;;;;;7.73;3.43;;;7.90;95.70;;;;;;5044620;28;20452;-67
2023/04/12 01:59:59;;;;;;;5.60;3.40;;;7.90;95.10;;;;;;5049433;28;21113;-67
2023/04/12 02:02:26;;;;;;;11.00;3.20;;;7.90;95.40;;;;;;5049844;28;20451;-66
2023/04/12 02:04:55;;;;;;;6.43;2.80;;;7.80;95.80;;;;;;5049070;28;20475;-67
2023/04/12 02:07:22;;;;;;;4.70;2.40;;;7.80;95.60;;;;;;5049484;28;20448;-68
2023/04/12 02:09:49;;;;;;;3.63;2.20;;;7.80;96.00;;;;;;5049009;28;20988;-67
2023/04/12 02:12:15;;;;;;;3.07;2.77;;;7.70;95.80;;;;;;5049199;28;20949;-68
2023/04/12 02:14:42;;;;;;;5.90;2.80;;;7.70;95.80;;;;;;5049201;28;20818;-68
2023/04/12 02:17:11;;;;;;;6.70;2.50;;;7.70;96.20;;;;;;5052771;28;20450;-67
2023/04/12 02:19:38;;;;;;;5.43;3.20;;;7.80;96.50;;;;;;5053381;28;20452;-67
2023/04/12 02:22:07;;;;;;;4.87;2.93;;;7.80;96.30;;;;;;5052937;28;20440;-67
2023/04/12 02:24:33;;;;;;;6.13;3.27;;;7.70;96.00;;;;;;5053340;28;20515;-67
2023/04/12 02:27:01;;;;;;;4.60;2.73;;;7.70;96.80;;;;;;5053338;28;20457;-67
2023/04/12 02:29:27;;;;;;;3.80;3.10;;;7.70;96.50;;;;;;5053364;28;21104;-67
2023/04/12 02:31:54;;;;;;;4.80;3.20;;;7.80;96.40;;;;;;5053595;28;20475;-67
2023/04/12 02:34:23;;;;;;;8.53;2.93;;;7.70;96.20;;;;;;5053352;28;20546;-66
2023/04/12 02:36:49;;;;;;;4.93;3.80;;;7.70;95.80;;;;;;5053429;28;20451;-67
2023/04/12 02:39:18;;;;;;;5.60;3.57;;;7.60;95.90;;;;;;5052816;28;20452;-67
2023/04/12 02:41:45;;;;;;;4.50;3.00;;;7.60;96.10;;;;;;5053228;28;20543;-67
2023/04/12 02:44:11;;;;;;;6.17;3.67;;;7.60;96.40;;;;;;5052839;28;20857;-67
2023/04/12 02:46:38;;;;;;;5.87;3.10;;;7.60;96.40;;;;;;5052824;28;20846;-67
2023/04/12 02:49:05;;;;;;;3.20;2.90;;;7.60;96.00;;;;;;5053002;28;20965;-67
2023/04/12 02:51:34;;;;;;;8.27;3.87;;;7.60;96.40;;;;;;5052571;28;20478;-68
2023/04/12 02:54:01;;;;;;;5.70;3.43;;;7.60;96.20;;;;;;5052617;28;20452;-66
2023/04/12 02:56:28;;;;;;;9.23;3.43;;;7.50;96.70;;;;;;5052568;28;20503;-67
2023/04/12 02:58:55;;;;;;;6.50;4.03;;;7.50;96.80;;;;;;5052821;28;20458;-68
2023/04/12 03:01:22;;;;;;;6.30;3.53;;;7.60;97.30;;;;;;5053155;28;20517;-67
2023/04/12 03:03:49;;;;;;;6.70;3.30;;;7.60;97.30;;;;;;5051955;28;20477;-67
2023/04/12 03:06:16;;;;;;;3.57;3.27;;;7.60;97.30;;;;;;5052978;28;20486;-67
2023/04/12 03:08:44;;;;;;;6.23;3.40;;;7.60;97.30;;;;;;5052582;28;20451;-67
2023/04/12 03:11:11;;;;;;;5.63;3.37;;;7.60;97.30;;;;;;5051972;28;20461;-68
2023/04/12 03:13:38;;;;;;;4.63;3.47;;;7.60;97.20;;;;;;5051878;28;20474;-69
2023/04/12 03:16:22;;;;;;;8.70;3.80;;;7.40;97.30;;;;;;5052297;28;20454;-68
2023/04/12 03:18:49;;;;;;;3.43;2.83;;;7.50;97.50;;;;;;5052362;28;20987;-68
2023/04/12 03:21:15;;;;;;;5.90;3.40;;;7.60;97.70;;;;;;5052266;28;20473;-68
2023/04/12 03:23:44;;;;;;;5.23;3.23;;;7.50;97.50;;;;;;5051098;28;20455;-68
2023/04/12 03:26:11;;;;;;;3.50;2.87;;;7.50;97.50;;;;;;5052304;28;20533;-68
2023/04/12 03:28:37;;;;;;;4.47;3.00;;;7.60;97.80;;;;;;5051052;28;20447;-68
2023/04/12 03:31:04;;;;;;;4.30;3.10;;;7.60;97.90;;;;;;5052158;28;20474;-68
2023/04/12 03:33:31;;;;;;;6.40;3.70;;;7.40;97.80;;;;;;5051551;28;20444;-67
2023/04/12 03:35:58;;;;;;;5.10;3.20;;;7.60;98.50;;;;;;5051827;28;20449;-67
2023/04/12 03:38:25;;;;;;;4.70;3.20;;;7.70;98.50;;;;;;5051889;28;20458;-67
2023/04/12 03:40:53;;;;;;;4.93;3.47;;;7.70;98.30;;;;;;5052018;28;20477;-68
2023/04/12 03:43:21;;;;;;;6.93;4.00;;;7.60;98.30;;;;;;5051194;28;20451;-68
2023/04/12 03:45:47;;;;;;;7.33;3.90;;;7.60;98.30;;;;;;5051472;28;21064;-69
2023/04/12 03:48:15;;;;;;;5.13;3.23;;;7.60;98.20;;;;;;5051758;28;20444;-68
2023/04/12 03:50:43;;;;;;;7.40;3.40;;;7.60;98.10;;;;;;5051766;28;20829;-69
2023/04/12 03:53:10;;;;;;;7.77;3.70;;;7.50;98.00;;;;;;5051073;28;20459;-69
2023/04/12 03:55:37;;;;;;;5.70;3.67;;;7.50;98.30;;;;;;5051630;28;20455;-67
2023/04/12 03:58:05;;;;;;;3.90;3.40;;;7.60;98.70;;;;;;5031725;28;20493;-67
2023/04/12 04:00:32;;;;;;;4.97;3.33;;;7.60;98.10;;;;;;5031560;28;20471;-68
2023/04/12 04:03:01;;;;;;;4.30;3.77;;;7.60;98.10;;;;;;5031357;28;20452;-68
2023/04/12 04:05:28;;;;;;;4.67;2.80;;;7.60;98.40;;;;;;5031197;28;21036;-68
2023/04/12 04:07:55;;;;;;;7.00;4.27;;;7.60;98.80;;;;;;5031747;28;20455;-68
2023/04/12 04:10:22;;;;;;;7.57;3.93;;;7.60;98.70;;;;;;5031484;28;20484;-68
2023/04/12 04:12:49;;;;;;;5.10;3.70;;;7.70;98.80;;;;;;5030803;28;20452;-68
2023/04/12 04:15:17;;;;;;;6.43;3.40;;;7.60;98.80;;;;;;5031583;28;20455;-68
2023/04/12 04:17:46;;;;;;;5.27;3.00;;;7.70;99.10;;;;;;5043745;28;20512;-68
2023/04/12 04:20:13;;;;;;;5.77;3.30;;;7.60;98.80;;;;;;5051171;28;20496;-68
2023/04/12 04:22:41;;;;;;;4.30;3.33;;;7.70;99.00;;;;;;5050764;28;20455;-68
2023/04/12 04:25:08;;;;;;;4.53;3.33;;;7.70;98.80;;;;;;5051245;28;20804;-68
2023/04/12 04:27:37;;;;;;;6.13;3.60;;;7.60;98.70;;;;;;5040097;28;20466;-68
2023/04/12 04:30:05;;;;;;;4.83;3.20;;;7.60;98.80;;;;;;5030990;28;20487;-67
2023/04/12 04:32:33;;;;;;;5.40;3.60;;;7.60;98.90;;;;;;5030772;28;20442;-68
2023/04/12 04:35:00;;;;;;;5.17;3.70;;;7.50;98.90;;;;;;5030860;28;20466;-68
2023/04/12 04:37:27;;;;;;;6.67;4.00;;;7.50;98.80;;;;;;5031286;28;20456;-68
2023/04/12 04:39:54;;;;;;;3.90;3.10;;;7.50;99.00;;;;;;5030421;28;20472;-68
2023/04/12 04:42:21;;;;;;;6.90;3.50;;;7.50;99.10;;;;;;5030817;28;20477;-67
2023/04/12 04:44:49;;;;;;;4.13;3.10;;;7.50;99.10;;;;;;5030950;28;20452;-68
2023/04/12 04:47:16;;;;;;;3.60;3.17;;;7.60;99.60;;;;;;5030300;28;21096;-68
2023/04/12 04:49:46;;;;;;;3.43;2.40;;;7.60;99.10;;;;;;5030925;28;20448;-67
2023/04/12 04:52:14;;;;;;;3.20;2.50;;;7.60;98.90;;;;;;5030820;28;20481;-67
2023/04/12 04:54:41;;;;;;;4.80;2.73;;;7.60;99.00;;;;;;5030600;28;20445;-67
2023/04/12 04:57:10;;;;;;;3.50;2.70;;;7.60;99.00;;;;;;5030862;28;20445;-67
2023/04/12 04:59:37;;;;;;;8.20;3.00;;;7.60;99.10;;;;;;5030011;28;20846;-68
2023/04/12 05:02:04;;;;;;;4.40;2.20;;;7.70;99.30;;;;;;5030778;28;20482;-66
2023/04/12 05:04:31;;;;;;;4.30;3.37;;;7.80;99.40;;;;;;5030439;28;20495;-67
2023/04/12 05:06:59;;;;;;;5.23;3.40;;;7.80;99.20;;;;;;5030131;28;20481;-68
2023/04/12 05:09:26;;;;;;;7.40;3.30;;;7.80;99.00;;;;;;5030458;28;20524;-69
2023/04/12 05:11:52;;;;;;;4.40;2.80;;;7.80;99.00;;;;;;5029975;28;20468;-68
2023/04/12 05:14:19;;;;;;;5.23;3.53;;;7.80;98.90;;;;;;5029732;28;20450;-68
2023/04/12 05:16:46;;;;;;;6.50;3.13;;;7.80;99.10;;;;;;5030282;28;20510;-67
2023/04/12 05:19:13;;;;;;;5.47;3.47;;;7.80;98.90;;;;;;5030013;28;20458;-68
2023/04/12 05:21:39;;;;;;;6.77;3.80;;;7.80;98.90;;;;;;5030157;28;20468;-68
2023/04/12 05:24:08;;;;;;;4.13;3.23;;;7.80;98.90;;;;;;5029637;28;20472;-68
2023/04/12 05:26:35;;;;;;;5.40;3.43;;;7.80;99.20;;;;;;5029766;28;20483;-68
2023/04/12 05:29:02;;;;;;;4.20;3.60;;;7.80;99.30;;;;;;5029661;28;20475;-67
2023/04/12 05:31:28;;;;;;;5.50;3.47;;;7.80;99.20;;;;;;5029910;28;20531;-68
2023/04/12 05:33:55;;;;;;;5.57;4.13;;;7.80;99.30;;;;;;5029864;28;20447;-68
2023/04/12 05:36:22;;;;;;;3.90;3.50;;;7.80;99.40;;;;;;5029948;28;20836;-68
2023/04/12 05:38:49;;;;;;;5.33;3.70;;;7.80;99.50;;;;;;5030006;28;20445;-68
2023/04/12 05:41:17;;;;;;;5.47;3.00;;;7.80;99.70;;;;;;5029443;28;20469;-68
2023/04/12 05:43:44;;;;;;;5.20;3.43;;;7.90;99.70;;;;;;5029594;28;20945;-68
2023/04/12 05:46:10;;;;;;;4.37;3.33;;;7.90;99.30;;;;;;5029940;28;20856;-68
2023/04/12 05:48:37;;;;;;;4.23;3.37;;;8.00;99.50;;;;;;5029823;28;20445;-68
2023/04/12 05:51:05;;;;;;;6.43;3.43;;;7.90;99.30;;;;;;5029123;28;20475;-68
2023/04/12 05:53:31;;;;;;;4.90;3.90;;;7.90;99.40;;;;;;5029358;28;20452;-68
2023/04/12 05:55:58;;;;;;;3.73;3.33;;;7.90;99.20;;;;;;5032201;28;20550;-68
2023/04/12 05:58:26;;;;;;;4.53;3.73;;;7.90;99.30;;;;;;5049465;28;20956;-68
2023/04/12 06:00:54;;;;;;;6.53;3.30;;;8.00;99.40;;;;;;5049310;28;20475;-67
2023/04/12 06:03:22;;;;;;;4.80;3.53;;;8.10;99.60;;;;;;5049391;28;20452;-67
2023/04/12 06:05:50;;;;;;;4.70;3.00;;;8.10;99.50;;;;;;5049003;28;20569;-67
2023/04/12 06:08:17;;;;;;;5.30;3.03;;;8.20;99.40;;;;;;5049448;28;20528;-68
2023/04/12 06:10:43;;;;;;;4.27;2.57;;;8.20;99.50;;;;;;5049504;28;20472;-68
2023/04/12 06:13:10;;;;;;;3.07;2.77;;;8.30;99.20;;;;;;5049344;28;20444;-67
2023/04/12 06:15:38;;;;;;;3.60;3.20;;;8.40;99.40;;;;;;5049398;28;20451;-67
2023/04/12 06:18:07;;;;;;;4.67;2.50;;;8.40;99.30;;;;;;5048902;28;20448;-67
2023/04/12 06:20:34;;;;;;;2.27;2.03;;;8.40;99.00;;;;;;5049416;28;20480;-67
2023/04/12 06:23:00;;;;;;;2.97;2.00;;;8.50;99.00;;;;;;5048770;28;20487;-67
2023/04/12 06:25:27;;;;;;;2.13;1.70;;;8.40;98.80;;;;;;5049515;28;20551;-67
2023/04/12 06:27:54;;;;;;;3.30;2.17;;;8.50;98.90;;;;;;5048890;28;20458;-67
2023/04/12 06:30:21;;;;;;;2.20;2.00;;;8.50;98.90;;;;;;5049201;28;20509;-68
2023/04/12 06:32:49;;;;;;;4.40;2.30;;;8.50;99.10;;;;;;5049596;28;20443;-67
2023/04/12 06:35:16;;;;;;;3.97;1.90;;;8.60;99.00;;;;;;5051534;28;20450;-67
2023/04/12 06:37:43;;;;;;;3.23;1.87;;;8.60;98.70;;;;;;5049408;28;20443;-67
2023/04/12 06:40:11;;;;;;;2.40;1.63;;;8.70;98.80;;;;;;5049837;28;20480;-68
2023/04/12 06:42:38;;;;;;;2.70;1.93;;;8.70;98.70;;;;;;5049039;28;20875;-67
2023/04/12 06:45:06;;;;;;;3.47;2.20;;;8.70;98.50;;;;;;5049730;28;20825;-67
2023/04/12 06:47:33;;;;;;;2.87;1.93;;;8.70;98.40;;;;;;5048858;28;20487;-66
2023/04/12 06:50:01;;;;;;;2.37;2.20;;;8.70;98.50;;;;;;5050427;28;20464;-68
2023/04/12 06:52:28;;;;;;;2.40;2.13;;;8.90;98.40;;;;;;5051030;28;20444;-68
2023/04/12 06:54:56;;;;;;;2.23;2.00;;;9.00;98.10;;;;;;5051361;28;20943;-68
2023/04/12 06:57:22;;;;;;;5.20;1.90;;;8.90;97.80;;;;;;5039791;28;20449;-67
2023/04/12 06:59:49;;;;;;;3.17;2.27;;;8.90;97.30;;;;;;5031708;28;20561;-67
2023/04/12 07:02:17;;;;;;;2.70;1.73;;;8.90;97.30;;;;;;5033228;28;20445;-67
2023/04/12 07:04:43;;;;;;;2.70;1.37;;;8.80;97.30;;;;;;5035150;28;20445;-67
2023/04/12 07:07:12;;;;;;;2.50;2.10;;;8.90;97.50;;;;;;5035347;28;20564;-68
2023/04/12 07:09:39;;;;;;;2.43;1.90;;;9.00;97.50;;;;;;5035135;28;20448;-68
2023/04/12 07:12:06;;;;;;;2.03;1.60;;;9.10;97.50;;;;;;5034750;28;20446;-68
2023/04/12 07:14:33;;;;;;;4.33;1.70;;;9.10;97.00;;;;;;5034532;28;20947;-68
2023/04/12 07:17:00;;;;;;;2.57;2.33;;;9.10;97.40;;;;;;5034856;28;20834;-68
2023/04/12 07:19:28;;;;;;;1.77;1.63;;;9.10;97.90;;;;;;5033257;28;20453;-68
2023/04/12 07:21:55;;;;;;;2.50;2.30;;;9.10;97.00;;;;;;5033584;28;20567;-68
2023/04/12 07:24:23;;;;;;;3.37;1.90;;;9.30;97.10;;;;;;5033498;28;20481;-73
2023/04/12 07:26:52;;;;;;;3.97;1.90;;;9.30;97.00;;;;;;5034197;28;20506;-68
2023/04/12 07:29:19;;;;;;;2.90;1.80;;;9.30;96.70;;;;;;5033694;28;20444;-69
2023/04/12 07:31:46;;;;;;;3.27;2.13;;;9.20;96.60;;;;;;5034199;28;20481;-69
2023/04/12 07:34:16;;;;;;;1.93;1.73;;;9.40;96.90;;;;;;5033290;28;20460;-69
2023/04/12 07:36:43;;;;;;;2.50;2.10;;;9.40;96.20;;;;;;5032717;28;20449;-69
2023/04/12 07:39:11;;;;;;;2.63;2.43;;;9.50;96.80;;;;;;5034406;28;20449;-68
2023/04/12 07:41:41;;;;;;;2.07;1.87;;;9.50;96.80;;;;;;5034488;28;20478;-70
2023/04/12 07:44:08;;;;;;;3.57;2.20;;;9.60;96.30;;;;;;5033070;28;20965;-68
2023/04/12 07:46:34;;;;;;;3.00;1.80;;;9.60;96.30;;;;;;5034594;28;20525;-69
2023/04/12 07:49:02;;;;;;;3.10;1.83;;;9.50;96.30;;;;;;5032891;28;20439;-71
2023/04/12 07:51:29;;;;;;;3.80;1.77;;;9.50;95.90;;;;;;5032767;28;20465;-69
2023/04/12 07:53:56;;;;;;;2.40;1.90;;;9.50;96.10;;;;;;5034326;28;20498;-69
2023/04/12 07:56:23;;;;;;;2.60;1.93;;;9.60;95.60;;;;;;5037183;28;20478;-69
2023/04/12 07:58:51;;;;;;;2.13;1.80;;;9.60;95.70;;;;;;5035769;28;20448;-69
2023/04/12 08:01:18;;;;;;;3.42;2.00;;;9.60;96.30;;;;;;5041469;28;20467;-69
2023/04/12 08:03:45;;;;;;;2.43;2.23;;;9.60;96.50;;;;;;5051454;28;20215;-69
2023/04/12 08:06:12;;;;;;;4.43;2.10;;;9.60;96.70;;;;;;5051843;28;20455;-69
2023/04/12 08:08:39;;;;;;;2.23;1.70;;;9.50;96.70;;;;;;5050939;28;20525;-69
2023/04/12 08:11:06;;;;;;;3.93;2.00;;;9.60;96.70;;;;;;5048576;28;20485;-68
2023/04/12 08:13:34;;;;;;;2.23;2.03;;;9.70;96.60;;;;;;5048437;28;20532;-69
2023/04/12 08:16:02;;;;;;;3.17;2.00;;;9.80;96.60;;;;;;5049395;28;20548;-69
2023/04/12 08:18:29;;;;;;;4.07;2.30;;;10.00;95.10;;;;;;5047846;28;20458;-69
2023/04/12 08:20:56;;;;;;;3.07;1.90;;;10.00;95.50;;;;;;5039007;28;20470;-68
2023/04/12 08:23:23;;;;;;;2.63;2.10;;;10.00;95.30;;;;;;5031135;28;20524;-69
2023/04/12 08:25:50;;;;;;;2.80;2.10;;;9.90;95.70;;;;;;5030254;28;20461;-69
2023/04/12 08:28:17;;;;;;;2.37;2.17;;;9.90;95.90;;;;;;5030549;28;20584;-69
2023/04/12 08:30:44;;;;;;;3.20;2.00;;;9.80;96.30;;;;;;5031661;28;20472;-69
2023/04/12 08:33:12;;;;;;;3.13;2.03;;;9.80;96.90;;;;;;5031296;28;20534;-69
2023/04/12 08:35:39;;;;;;;2.60;1.43;;;9.80;96.70;;;;;;5031511;28;20473;-69
2023/04/12 08:38:09;;;;;;;2.83;2.27;;;9.90;96.30;;;;;;5031119;28;20451;-70
2023/04/12 08:40:37;;;;;;;2.83;1.83;;;9.90;96.40;;;;;;5030987;28;20480;-69
2023/04/12 08:43:07;;;;;;;3.10;2.30;;;9.90;96.30;;;;;;5030870;28;20950;-69
2023/04/12 08:45:36;;;;;;;2.87;2.10;;;10.00;96.30;;;;;;5031838;28;21032;-70
2023/04/12 08:48:04;;;;;;;1.97;1.77;;;10.00;96.70;;;;;;5033388;28;20515;-70
2023/04/12 08:50:33;;;;;;;2.90;2.33;;;10.10;96.70;;;;;;5041245;28;20487;-70
2023/04/12 08:53:00;;;;;;;2.50;2.30;;;10.10;96.70;;;;;;5050703;28;20459;-69
2023/04/12 08:55:26;;;;;;;5.13;2.20;;;10.30;96.20;;;;;;5050925;28;20717;-69
2023/04/12 08:57:55;;;;;;;1.87;1.77;;;10.30;95.40;;;;;;5050659;28;20447;-69
2023/04/12 09:00:22;;;;;;;3.13;2.30;;;10.30;95.10;;;;;;5050337;28;20483;-70
2023/04/12 09:02:49;;;;;;;2.83;2.13;;;10.40;95.40;;;;;;5050211;28;20533;-70
2023/04/12 09:05:16;;;;;;;2.77;2.57;;;10.50;94.90;;;;;;5050428;28;20451;-69
2023/04/12 09:07:44;;;;;;;4.40;2.80;;;10.40;95.60;;;;;;5049914;28;20478;-68
2023/04/12 09:10:29;;;;;;;3.87;2.90;;;10.60;95.00;;;;;;5050399;28;20476;-68
2023/04/12 09:12:56;;;;;;;2.80;2.30;;;10.60;94.70;;;;;;5049915;28;20949;-69
2023/04/12 09:15:23;;;;;;;3.03;2.73;;;10.60;94.90;;;;;;5032041;28;20967;-69
2023/04/12 09:18:02;;;;;;;5.70;2.90;;;10.70;95.60;;;;;;5037663;28;20483;-69
2023/04/12 09:20:29;;;;;;;3.53;2.97;;;10.80;95.10;;;;;;5030410;28;20469;-69
2023/04/12 09:22:57;;;;;;;3.70;3.00;;;10.70;95.60;;;;;;5048189;28;20450;-69
2023/04/12 09:25:39;;;;;;;5.40;4.07;;;10.70;94.90;;;;;;5048154;28;20452;-70
2023/04/12 09:28:18;;;;;;;3.60;3.30;;;10.80;95.80;;;;;;5049149;28;21026;-70
2023/04/12 09:30:50;;;;;;;3.43;2.30;;;11.00;95.60;;;;;;5049800;28;20484;-69
2023/04/12 09:33:18;;;;;;;2.63;2.27;;;11.10;94.80;;;;;;5049123;28;20459;-69
2023/04/12 09:35:45;;;;;;;2.93;2.70;;;11.20;94.40;;;;;;5042999;28;20457;-69
2023/04/12 09:38:13;;;;;;;6.40;3.47;;;11.20;93.80;;;;;;5029350;28;20452;-70
2023/04/12 09:40:40;;;;;;;3.80;2.77;;;11.20;93.90;;;;;;5029551;28;20466;-71
2023/04/12 09:43:08;;;;;;;3.70;2.70;;;11.10;93.80;;;;;;5035629;28;20533;-69
2023/04/12 09:45:37;;;;;;;3.30;3.00;;;11.20;94.20;;;;;;5059604;28;20593;-69
2023/04/12 09:48:06;;;;;;;4.50;2.90;;;11.30;94.00;;;;;;5030686;28;20483;-69
2023/04/12 09:50:33;;;;;;;5.07;2.90;;;11.30;93.30;;;;;;5031369;28;20468;-68
2023/04/12 09:53:01;;;;;;;2.87;2.43;;;11.20;93.10;;;;;;5029820;28;20455;-69
2023/04/12 09:55:31;;;;;;;5.83;2.70;;;11.20;93.10;;;;;;5029557;28;20451;-69
2023/04/12 09:58:02;;;;;;;2.33;2.13;;;11.20;93.50;;;;;;5048552;28;20443;-69
2023/04/12 10:00:30;;;;;;;3.07;2.47;;;11.30;93.50;;;;;;5049035;28;20475;-68
2023/04/12 10:02:59;;;;;;;2.87;2.37;;;11.40;93.60;;;;;;5049033;28;20454;-68
2023/04/12 10:05:26;;;;;;;3.63;2.00;;;11.40;93.30;;;;;;5049054;28;20557;-68
2023/04/12 10:07:53;;;;;;;3.63;2.10;;;11.50;92.90;;;;;;5048469;28;20489;-69
2023/04/12 10:10:21;;;;;;;5.47;3.30;;;11.60;93.10;;;;;;5041613;28;20465;-69
2023/04/12 10:12:49;;;;;;;4.60;2.23;;;11.70;93.70;;;;;;5048690;28;20467;-68
2023/04/12 10:15:17;;;;;;;2.30;2.10;;;11.90;92.30;;;;;;5048750;28;20527;-68
2023/04/12 10:17:45;;;;;;;3.00;2.80;;;12.10;92.50;;;;;;5048444;28;20447;-68
2023/04/12 10:20:13;;;;;;;2.60;1.60;;;12.40;91.90;;;;;;5049029;28;20563;-68
2023/04/12 10:22:42;;;;;;;5.00;2.07;;;12.30;90.20;;;;;;5048648;28;20816;-68
2023/04/12 10:25:14;;;;;;;3.27;2.00;;;12.30;91.10;;;;;;5048414;28;20455;-68
2023/04/12 10:27:42;;;;;;;2.80;2.10;;;12.40;91.80;;;;;;5048777;28;20475;-69
2023/04/12 10:30:27;;;;;;;2.47;1.83;;;12.60;90.20;;;;;;5048857;28;20468;-68
2023/04/12 10:33:13;;;;;;;3.63;2.00;;;12.60;88.10;;;;;;5048717;28;20942;-68
2023/04/12 10:35:58;;;;;;;2.40;1.80;;;12.70;88.80;;;;;;5049228;28;20833;-69
2023/04/12 10:38:30;;;;;;;2.33;1.87;;;12.80;89.70;;;;;;5052436;28;20452;-69
2023/04/12 10:41:16;;;;;;;5.40;2.80;;;13.00;88.40;;;;;;5052652;28;20542;-69
2023/04/12 10:43:45;;;;;;;4.03;2.10;;;13.10;88.40;;;;;;5052291;28;20531;-68
2023/04/12 10:46:50;;;;;;;2.30;2.10;;;13.10;85.70;;;;;;5052298;28;20454;-69
2023/04/12 10:49:17;;;;;;;3.57;2.20;;;13.30;85.30;;;;;;5052542;28;20509;-69
2023/04/12 10:52:16;;;;;;;3.60;1.40;;;13.70;85.70;;;;;;5052522;28;20468;-67
2023/04/12 10:54:43;;;;;;;3.20;1.40;;;13.70;83.50;;;;;;5052100;28;20549;-69
2023/04/12 10:57:46;;;;;;;3.20;1.60;;;13.70;80.40;;;;;;5048027;28;20830;-68
2023/04/12 11:00:14;;;;;;;2.33;1.50;;;13.60;82.60;;;;;;5032081;28;20482;-69
2023/04/12 11:03:10;;;;;;;3.43;1.90;;;13.70;85.10;;;;;;5031901;28;20454;-68
2023/04/12 11:06:00;;;;;;;2.20;1.43;;;13.90;81.70;;;;;;5031477;28;20468;-68
2023/04/12 11:08:28;;;;;;;2.70;1.80;;;14.00;82.30;;;;;;5032533;28;21163;-69
2023/04/12 11:11:02;;;;;;;1.93;1.50;;;14.30;81.40;;;;;;5032831;28;20570;-69
2023/04/12 11:13:30;;;;;;;2.80;1.50;;;14.50;80.10;;;;;;5040125;28;20475;-69
2023/04/12 11:15:57;;;;;;;1.60;1.30;;;14.80;78.70;;;;;;5042151;28;20457;-69
2023/04/12 11:18:25;;;;;;;1.23;1.13;;;14.80;77.60;;;;;;5051044;28;20446;-69
2023/04/12 11:20:54;;;;;;;2.90;1.83;;;14.60;75.40;;;;;;5051327;28;20471;-69
2023/04/12 11:23:21;;;;;;;2.30;2.20;;;14.70;75.10;;;;;;5051188;28;20443;-69
2023/04/12 11:25:52;;;;;;;1.30;1.10;;;14.50;75.90;;;;;;5044297;28;20486;-69
2023/04/12 11:28:20;;;;;;;2.10;1.50;;;14.50;75.90;;;;;;5031041;28;20571;-70
2023/04/12 11:30:51;;;;;;;3.27;1.40;;;14.50;74.80;;;;;;5040923;28;20472;-69
2023/04/12 11:33:36;;;;;;;2.27;1.23;;;14.70;79.20;;;;;;5051000;28;20451;-70
2023/04/12 11:36:06;;;;;;;1.90;1.27;;;14.70;74.40;;;;;;5041089;28;20455;-69
2023/04/12 11:38:34;;;;;;;2.93;1.40;;;14.80;74.50;;;;;;5031411;28;20575;-70
2023/04/12 11:41:01;;;;;;;2.47;1.23;;;14.60;72.30;;;;;;5031032;28;20476;-69
2023/04/12 11:43:28;;;;;;;2.20;1.30;;;14.70;71.70;;;;;;5031006;28;20949;-70
2023/04/12 11:45:58;;;;;;;1.43;1.20;;;14.60;72.80;;;;;;5039361;28;20448;-69
2023/04/12 11:48:25;;;;;;;1.70;0.90;;;14.70;72.60;;;;;;5049969;28;20630;-70
2023/04/12 11:50:55;;;;;;;2.40;1.50;;;14.80;71.70;;;;;;5051041;28;20478;-69
2023/04/12 11:53:27;;;;;;;1.53;1.00;;;14.80;71.70;;;;;;5050588;28;20493;-70
2023/04/12 11:55:58;;;;;;;3.70;1.30;;;14.70;72.60;;;;;;5044526;28;20453;-69
2023/04/12 11:58:27;;;;;;;2.13;0.93;;;14.80;73.60;;;;;;5050612;28;20455;-69
2023/04/12 12:00:57;;;;;;;1.20;1.00;;;14.90;73.00;;;;;;5050610;28;20475;-70
2023/04/12 12:03:24;;;;;;;2.47;1.20;;;15.00;70.80;;;;;;5043676;28;20448;-69
2023/04/12 12:05:53;;;;;;;1.70;1.10;;;15.00;70.80;;;;;;5030933;28;21022;-69
2023/04/12 12:08:20;;;;;;;0.93;0.83;;;15.00;70.50;;;;;;5031055;28;20487;-69
2023/04/12 12:10:47;;;;;;;1.40;1.00;;;15.00;70.50;;;;;;5030699;28;20481;-69
2023/04/12 12:13:14;;;;;;;3.63;0.90;;;15.20;69.00;;;;;;5035608;28;20448;-69
2023/04/12 12:15:44;;;;;;;0.90;0.90;;;15.30;67.70;;;;;;5050559;28;20539;-68
2023/04/12 12:18:11;;;;;;;0.87;0.70;;;15.30;67.20;;;;;;5050503;28;20436;-69
2023/04/12 12:20:42;;;;;;;2.57;1.00;;;15.20;67.10;;;;;;5050659;28;20476;-68
2023/04/12 12:23:10;;;;;;;1.00;0.90;;;15.10;67.50;;;;;;5045789;28;20948;-68
2023/04/12 12:25:37;;;;;;;2.40;1.07;;;15.00;67.40;;;;;;5030831;28;20481;-69
2023/04/12 12:28:06;;;;;;;2.83;1.13;;;15.00;66.50;;;;;;5030353;28;20481;-68
2023/04/12 12:30:39;;;;;;;1.60;0.90;;;14.90;68.70;;;;;;5030294;28;20461;-70
2023/04/12 12:33:06;;;;;;;1.03;0.90;;;15.00;67.90;;;;;;5032456;28;20448;-69
2023/04/12 12:35:35;;;;;;;1.23;0.80;;;15.20;67.10;;;;;;5049750;28;20443;-69
2023/04/12 12:38:07;;;;;;;1.10;0.97;;;15.30;64.80;;;;;;5049462;28;20447;-68
2023/04/12 12:40:35;;;;;;;1.27;0.87;;;15.20;65.80;;;;;;5049784;28;20488;-69
2023/04/12 12:43:02;;;;;;;1.30;1.10;;;15.10;67.90;;;;;;5046773;28;20459;-68
2023/04/12 12:45:31;;;;;;;1.53;0.90;;;15.20;66.10;;;;;;5029552;28;20447;-68
2023/04/12 12:47:59;;;;;;;1.17;0.70;;;15.20;65.40;;;;;;5029828;28;20498;-69
2023/04/12 12:50:27;;;;;;;1.00;0.80;;;15.50;65.40;;;;;;5029575;28;20472;-68
2023/04/12 12:52:55;;;;;;;1.83;0.70;;;15.50;64.50;;;;;;5030042;28;20456;-67
2023/04/12 12:55:22;;;;;;;2.00;0.80;;;15.70;65.70;;;;;;5049413;28;20452;-70
2023/04/12 12:57:52;;;;;;;1.70;0.53;;;15.80;64.50;;;;;;5049264;28;20440;-70
2023/04/12 13:00:22;;;;;;;3.63;0.90;;;15.80;62.30;;;;;;5049028;28;20479;-68